createdAt,value
2018-10-06T00:00:38.122Z,63.91
2018-10-06T00:01:45.014Z,63.86
2018-10-06T00:02:51.946Z,63.87
2018-10-06T00:03:58.837Z,63.96
2018-10-06T00:05:05.761Z,64.00
2018-10-06T00:06:12.594Z,64.01
2018-10-06T00:07:19.429Z,64.04
2018-10-06T00:08:26.187Z,64.04
2018-10-06T00:09:33.046Z,64.11
2018-10-06T00:10:39.952Z,64.09
2018-10-06T00:11:46.996Z,64.12
2018-10-06T00:12:53.850Z,64.15
2018-10-06T00:14:00.626Z,64.19
2018-10-06T00:15:07.494Z,64.28
2018-10-06T00:16:14.262Z,64.26
2018-10-06T00:17:21.110Z,64.24
2018-10-06T00:18:27.927Z,64.29
2018-10-06T00:19:34.892Z,64.29
2018-10-06T00:20:41.845Z,64.33
2018-10-06T00:21:48.683Z,64.30
2018-10-06T00:22:55.347Z,64.32
2018-10-06T00:24:02.523Z,64.35
2018-10-06T00:25:09.298Z,64.37
2018-10-06T00:26:16.278Z,64.37
2018-10-06T00:27:23.106Z,64.38
2018-10-06T00:28:29.804Z,64.44
2018-10-06T00:29:36.762Z,64.46
2018-10-06T00:30:43.547Z,64.51
2018-10-06T00:31:50.401Z,64.61
2018-10-06T00:32:57.164Z,64.65
2018-10-06T00:34:04.031Z,64.64
2018-10-06T00:35:11.011Z,64.61
2018-10-06T00:36:17.768Z,64.58
2018-10-06T00:37:24.638Z,64.59
2018-10-06T00:38:31.425Z,64.62
2018-10-06T00:39:38.509Z,64.71
2018-10-06T00:40:45.369Z,64.74
2018-10-06T00:41:52.209Z,64.74
2018-10-06T00:42:58.974Z,64.74
2018-10-06T00:44:05.842Z,64.73
2018-10-06T00:45:12.592Z,64.69
2018-10-06T00:46:19.463Z,64.72
2018-10-06T00:47:26.182Z,64.75
2018-10-06T00:48:33.000Z,64.79
2018-10-06T00:49:39.863Z,64.85
2018-10-06T00:50:46.581Z,64.83
2018-10-06T00:51:53.919Z,64.81
2018-10-06T00:53:00.679Z,64.83
2018-10-06T00:54:07.642Z,64.81
2018-10-06T00:55:14.418Z,64.83
2018-10-06T00:56:21.515Z,64.84
2018-10-06T00:57:28.242Z,64.83
2018-10-06T00:58:35.152Z,64.86
2018-10-06T00:59:41.878Z,64.93
2018-10-06T01:00:48.642Z,65.01
2018-10-06T01:01:55.394Z,65.06
2018-10-06T01:03:02.178Z,65.03
2018-10-06T01:04:08.943Z,65.01
2018-10-06T01:05:16.014Z,64.98
2018-10-06T01:06:22.790Z,65.04
2018-10-06T01:07:29.643Z,65.09
2018-10-06T01:08:37.042Z,65.14
2018-10-06T01:09:43.774Z,65.11
2018-10-06T01:10:50.912Z,65.14
2018-10-06T01:11:57.331Z,65.12
2018-10-06T01:13:04.038Z,65.17
2018-10-06T01:14:10.951Z,65.18
2018-10-06T01:15:18.249Z,65.19
2018-10-06T01:16:25.317Z,65.22
2018-10-06T01:17:31.957Z,65.28
2018-10-06T01:18:38.710Z,65.26
2018-10-06T01:19:45.368Z,65.27
2018-10-06T01:20:52.655Z,65.26
2018-10-06T01:21:59.342Z,65.26
2018-10-06T01:23:06.083Z,65.22
2018-10-06T01:24:13.250Z,65.28
2018-10-06T01:25:20.027Z,65.30
2018-10-06T01:26:26.760Z,65.27
2018-10-06T01:27:33.581Z,65.28
2018-10-06T01:28:40.395Z,65.28
2018-10-06T01:29:47.160Z,65.28
2018-10-06T01:30:53.979Z,65.29
2018-10-06T01:32:00.750Z,65.29
2018-10-06T01:33:07.499Z,65.30
2018-10-06T01:34:14.158Z,65.29
2018-10-06T01:35:21.119Z,65.30
2018-10-06T01:36:27.755Z,65.31
2018-10-06T01:37:34.458Z,65.36
2018-10-06T01:38:41.618Z,65.42
2018-10-06T01:39:48.377Z,65.43
2018-10-06T01:40:55.664Z,65.42
2018-10-06T01:42:02.784Z,65.43
2018-10-06T01:43:09.609Z,65.44
2018-10-06T01:44:16.886Z,65.44
2018-10-06T01:45:23.748Z,65.45
2018-10-06T01:46:30.505Z,65.42
2018-10-06T01:47:37.793Z,65.41
2018-10-06T01:48:44.540Z,65.43
2018-10-06T01:49:51.837Z,65.45
2018-10-06T01:50:58.597Z,65.44
2018-10-06T01:52:05.843Z,65.42
2018-10-06T01:53:12.571Z,65.43
2018-10-06T01:54:19.401Z,65.44
2018-10-06T01:55:26.166Z,65.45
2018-10-06T01:56:32.848Z,65.49
2018-10-06T01:57:39.715Z,65.49
2018-10-06T01:58:46.371Z,65.47
2018-10-06T01:59:53.643Z,65.51
2018-10-06T02:01:00.540Z,65.53
2018-10-06T02:02:07.364Z,65.55
2018-10-06T02:03:14.141Z,65.58
2018-10-06T02:04:21.124Z,65.57
2018-10-06T02:05:27.877Z,65.62
2018-10-06T02:06:34.787Z,65.65
2018-10-06T02:07:41.624Z,65.69
2018-10-06T02:08:48.878Z,65.66
2018-10-06T02:09:55.765Z,65.68
2018-10-06T02:11:02.529Z,65.70
2018-10-06T02:12:09.439Z,65.70
2018-10-06T02:13:16.129Z,65.72
2018-10-06T02:14:23.138Z,65.76
2018-10-06T02:15:29.892Z,65.70
2018-10-06T02:16:36.749Z,65.75
2018-10-06T02:17:43.634Z,65.80
2018-10-06T02:18:50.478Z,65.85
2018-10-06T02:19:57.359Z,65.85
2018-10-06T02:21:04.231Z,65.84
2018-10-06T02:22:11.048Z,65.86
2018-10-06T02:23:17.868Z,65.91
2018-10-06T02:24:24.657Z,65.86
2018-10-06T02:25:31.811Z,65.86
2018-10-06T02:26:38.688Z,65.86
2018-10-06T02:27:45.549Z,65.88
2018-10-06T02:28:52.372Z,65.87
2018-10-06T02:29:59.162Z,65.89
2018-10-06T02:31:06.143Z,65.90
2018-10-06T02:32:12.931Z,65.87
2018-10-06T02:33:19.794Z,65.88
2018-10-06T02:34:26.525Z,65.90
2018-10-06T02:35:33.301Z,65.93
2018-10-06T02:36:40.164Z,65.94
2018-10-06T02:37:46.955Z,65.96
2018-10-06T02:38:53.768Z,65.98
2018-10-06T02:40:00.576Z,66.00
2018-10-06T02:41:07.533Z,66.02
2018-10-06T02:42:14.298Z,66.03
2018-10-06T02:43:21.277Z,66.03
2018-10-06T02:44:27.998Z,66.05
2018-10-06T02:45:34.933Z,66.06
2018-10-06T02:46:41.666Z,66.07
2018-10-06T02:47:48.414Z,66.05
2018-10-06T02:48:55.209Z,66.06
2018-10-06T02:50:02.079Z,66.07
2018-10-06T02:51:09.046Z,66.04
2018-10-06T02:52:15.936Z,66.05
2018-10-06T02:53:22.795Z,66.15
2018-10-06T02:54:29.535Z,66.15
2018-10-06T02:55:36.413Z,66.15
2018-10-06T02:56:43.082Z,66.13
2018-10-06T02:57:50.470Z,66.15
2018-10-06T02:58:57.231Z,66.17
2018-10-06T03:00:04.177Z,66.15
2018-10-06T03:01:11.044Z,66.15
2018-10-06T03:02:17.813Z,66.12
2018-10-06T03:03:24.695Z,66.15
2018-10-06T03:04:31.557Z,66.16
2018-10-06T03:05:38.721Z,66.17
2018-10-06T03:06:45.721Z,66.20
2018-10-06T03:07:52.549Z,66.19
2018-10-06T03:08:59.540Z,66.23
2018-10-06T03:10:06.407Z,66.24
2018-10-06T03:11:13.265Z,66.22
2018-10-06T03:12:20.106Z,66.21
2018-10-06T03:13:26.900Z,66.25
2018-10-06T03:14:33.652Z,66.30
2018-10-06T03:15:40.531Z,66.31
2018-10-06T03:16:47.421Z,66.33
2018-10-06T03:17:54.216Z,66.33
2018-10-06T03:19:00.967Z,66.34
2018-10-06T03:20:07.891Z,66.34
2018-10-06T03:21:14.637Z,66.39
2018-10-06T03:22:21.524Z,66.48
2018-10-06T03:23:28.512Z,66.47
2018-10-06T03:24:35.466Z,66.49
2018-10-06T03:25:42.339Z,66.52
2018-10-06T03:26:49.210Z,66.51
2018-10-06T03:27:56.082Z,66.51
2018-10-06T03:29:03.052Z,66.53
2018-10-06T03:30:10.227Z,66.54
2018-10-06T03:31:16.978Z,66.57
2018-10-06T03:32:23.738Z,66.66
2018-10-06T03:33:30.539Z,66.65
2018-10-06T03:34:37.387Z,66.66
2018-10-06T03:35:44.145Z,66.64
2018-10-06T03:36:51.027Z,66.63
2018-10-06T03:37:57.831Z,66.67
2018-10-06T03:39:04.668Z,66.73
2018-10-06T03:40:11.408Z,66.74
2018-10-06T03:41:18.087Z,66.77
2018-10-06T03:42:24.931Z,66.81
2018-10-06T03:43:31.643Z,66.81
2018-10-06T03:44:38.574Z,66.76
2018-10-06T03:45:45.446Z,66.77
2018-10-06T03:46:52.268Z,66.84
2018-10-06T03:47:59.077Z,66.91
2018-10-06T03:49:05.949Z,66.99
2018-10-06T03:50:12.618Z,67.06
2018-10-06T03:51:19.361Z,67.13
2018-10-06T03:52:26.126Z,67.13
2018-10-06T03:53:32.915Z,67.16
2018-10-06T03:54:39.781Z,67.13
2018-10-06T03:55:46.529Z,67.14
2018-10-06T03:56:53.381Z,67.18
2018-10-06T03:58:00.222Z,67.22
2018-10-06T03:59:07.079Z,67.31
2018-10-06T04:00:13.995Z,67.32
2018-10-06T04:01:20.883Z,67.30
2018-10-06T04:02:27.734Z,67.33
2018-10-06T04:03:34.494Z,67.34
2018-10-06T04:04:41.285Z,67.30
2018-10-06T04:05:48.084Z,67.33
2018-10-06T04:06:54.905Z,67.40
2018-10-06T04:08:01.623Z,67.43
2018-10-06T04:09:08.543Z,67.51
2018-10-06T04:10:15.200Z,67.51
2018-10-06T04:11:22.014Z,67.49
2018-10-06T04:12:28.726Z,67.49
2018-10-06T04:13:35.568Z,67.52
2018-10-06T04:14:42.254Z,67.51
2018-10-06T04:15:49.020Z,67.52
2018-10-06T04:16:55.893Z,67.50
2018-10-06T04:18:02.648Z,67.52
2018-10-06T04:19:09.522Z,67.51
2018-10-06T04:20:16.368Z,67.55
2018-10-06T04:21:23.265Z,67.56
2018-10-06T04:22:29.967Z,67.55
2018-10-06T04:23:36.787Z,67.54
2018-10-06T04:24:43.555Z,67.55
2018-10-06T04:25:50.328Z,67.56
2018-10-06T04:26:57.030Z,67.58
2018-10-06T04:28:03.825Z,67.61
2018-10-06T04:29:10.706Z,67.61
2018-10-06T04:30:17.571Z,67.63
2018-10-06T04:31:24.438Z,67.66
2018-10-06T04:32:31.205Z,67.65
2018-10-06T04:33:38.067Z,67.66
2018-10-06T04:34:45.062Z,67.68
2018-10-06T04:35:52.025Z,67.71
2018-10-06T04:36:58.671Z,67.69
2018-10-06T04:38:05.520Z,67.68
2018-10-06T04:39:12.411Z,67.67
2018-10-06T04:40:19.272Z,67.65
2018-10-06T04:41:26.030Z,67.59
2018-10-06T04:42:33.209Z,67.67
2018-10-06T04:43:39.997Z,67.68
2018-10-06T04:44:46.752Z,67.67
2018-10-06T04:45:53.606Z,67.68
2018-10-06T04:47:00.362Z,67.67
2018-10-06T04:48:07.247Z,67.71
2018-10-06T04:49:14.039Z,67.74
2018-10-06T04:50:20.904Z,67.72
2018-10-06T04:51:27.749Z,67.72
2018-10-06T04:52:34.408Z,67.74
2018-10-06T04:53:41.685Z,67.76
2018-10-06T04:54:48.475Z,67.79
2018-10-06T04:55:55.371Z,67.80
2018-10-06T04:57:02.082Z,67.80
2018-10-06T04:58:09.110Z,67.80
2018-10-06T04:59:15.839Z,67.82
2018-10-06T05:00:22.790Z,67.81
2018-10-06T05:01:29.442Z,67.80
2018-10-06T05:02:36.740Z,67.79
2018-10-06T05:03:43.367Z,67.79
2018-10-06T05:04:50.718Z,67.81
2018-10-06T05:05:57.512Z,67.87
2018-10-06T05:07:04.216Z,67.89
2018-10-06T05:08:10.962Z,67.91
2018-10-06T05:09:17.625Z,67.88
2018-10-06T05:10:24.490Z,67.94
2018-10-06T05:11:31.139Z,67.95
2018-10-06T05:12:38.431Z,67.99
2018-10-06T05:13:45.354Z,68.00
2018-10-06T05:14:52.269Z,68.01
2018-10-06T05:15:59.049Z,68.02
2018-10-06T05:17:06.005Z,68.03
2018-10-06T05:18:12.623Z,68.03
2018-10-06T05:19:19.969Z,68.09
2018-10-06T05:20:26.704Z,68.20
2018-10-06T05:21:33.358Z,68.26
2018-10-06T05:22:40.661Z,68.23
2018-10-06T05:23:47.379Z,68.20
2018-10-06T05:24:54.189Z,68.31
2018-10-06T05:26:00.953Z,68.35
2018-10-06T05:27:07.803Z,68.32
2018-10-06T05:28:14.590Z,68.32
2018-10-06T05:29:21.671Z,68.38
2018-10-06T05:30:28.439Z,68.41
2018-10-06T05:31:35.280Z,68.46
2018-10-06T05:32:42.057Z,68.49
2018-10-06T05:33:48.814Z,68.50
2018-10-06T05:34:56.095Z,68.50
2018-10-06T05:36:02.742Z,68.44
2018-10-06T05:37:09.713Z,68.53
2018-10-06T05:38:16.471Z,68.50
2018-10-06T05:39:23.352Z,68.48
2018-10-06T05:40:30.246Z,68.49
2018-10-06T05:41:37.288Z,68.53
2018-10-06T05:42:44.006Z,68.54
2018-10-06T05:43:50.798Z,68.54
2018-10-06T05:44:57.592Z,68.61
2018-10-06T05:46:04.577Z,68.64
2018-10-06T05:47:11.210Z,68.72
2018-10-06T05:48:17.985Z,68.74
2018-10-06T05:49:24.833Z,68.76
2018-10-06T05:50:31.922Z,68.78
2018-10-06T05:51:38.664Z,68.78
2018-10-06T05:52:45.361Z,68.83
2018-10-06T05:53:52.532Z,68.84
2018-10-06T05:54:59.173Z,68.92
2018-10-06T05:56:06.486Z,68.95
2018-10-06T05:57:13.331Z,68.96
2018-10-06T05:58:20.122Z,68.99
2018-10-06T05:59:26.973Z,69.04
2018-10-06T06:00:33.726Z,69.09
2018-10-06T06:01:40.553Z,69.12
2018-10-06T06:02:47.154Z,69.15
2018-10-06T06:03:54.018Z,69.20
2018-10-06T06:05:00.799Z,69.23
2018-10-06T06:06:07.610Z,69.27
2018-10-06T06:07:14.421Z,69.34
2018-10-06T06:08:21.391Z,69.45
2018-10-06T06:09:28.048Z,69.46
2018-10-06T06:10:35.445Z,69.50
2018-10-06T06:11:42.196Z,69.52
2018-10-06T06:12:48.885Z,69.59
2018-10-06T06:13:55.619Z,69.64
2018-10-06T06:15:02.312Z,69.70
2018-10-06T06:16:09.246Z,69.74
2018-10-06T06:17:15.981Z,69.83
2018-10-06T06:18:22.995Z,69.88
2018-10-06T06:19:29.673Z,69.99
2018-10-06T06:20:36.502Z,70.07
2018-10-06T06:21:43.286Z,70.17
2018-10-06T06:22:50.195Z,70.28
2018-10-06T06:23:56.994Z,70.38
2018-10-06T06:25:03.583Z,70.48
2018-10-06T06:26:10.702Z,70.57
2018-10-06T06:27:17.417Z,70.64
2018-10-06T06:28:24.190Z,70.72
2018-10-06T06:29:30.864Z,70.77
2018-10-06T06:30:37.583Z,70.83
2018-10-06T06:31:44.383Z,70.88
2018-10-06T06:32:51.239Z,70.95
2018-10-06T06:33:57.998Z,71.02
2018-10-06T06:35:04.768Z,71.09
2018-10-06T06:36:11.467Z,71.15
2018-10-06T06:37:18.300Z,71.23
2018-10-06T06:38:25.152Z,71.28
2018-10-06T06:39:31.638Z,71.33
2018-10-06T06:40:38.907Z,71.41
2018-10-06T06:41:45.599Z,71.46
2018-10-06T06:42:52.724Z,71.56
2018-10-06T06:43:59.982Z,71.64
2018-10-06T06:45:06.894Z,71.70
2018-10-06T06:46:13.659Z,71.79
2018-10-06T06:47:20.690Z,71.86
2018-10-06T06:48:27.396Z,71.93
2018-10-06T06:49:34.046Z,72.00
2018-10-06T06:50:41.028Z,72.08
2018-10-06T06:51:47.817Z,72.15
2018-10-06T06:52:54.551Z,72.19
2018-10-06T06:54:01.258Z,72.25
2018-10-06T06:55:08.344Z,72.31
2018-10-06T06:56:14.973Z,72.39
2018-10-06T06:57:21.902Z,72.50
2018-10-06T06:58:28.568Z,72.59
2018-10-06T06:59:35.442Z,72.69
2018-10-06T07:00:42.201Z,72.75
2018-10-06T07:01:49.474Z,72.88
2018-10-06T07:02:56.666Z,72.94
2018-10-06T07:04:03.534Z,73.02
2018-10-06T07:05:10.400Z,73.12
2018-10-06T07:06:17.365Z,73.25
2018-10-06T07:07:24.339Z,73.36
2018-10-06T07:08:31.214Z,73.47
2018-10-06T07:09:38.080Z,73.62
2018-10-06T07:10:44.940Z,73.75
2018-10-06T07:11:51.794Z,73.88
2018-10-06T07:12:58.580Z,74.00
2018-10-06T07:14:05.518Z,74.09
2018-10-06T07:15:12.153Z,74.22
2018-10-06T07:16:18.983Z,74.35
2018-10-06T07:17:25.966Z,74.43
2018-10-06T07:18:32.890Z,74.54
2018-10-06T07:19:39.678Z,74.61
2018-10-06T07:20:46.384Z,74.71
2018-10-06T07:21:53.209Z,74.84
2018-10-06T07:22:59.974Z,74.96
2018-10-06T07:24:06.847Z,75.05
2018-10-06T07:25:13.720Z,75.20
2018-10-06T07:26:20.681Z,75.32
2018-10-06T07:27:27.580Z,75.46
2018-10-06T07:28:34.565Z,75.57
2018-10-06T07:29:41.277Z,75.73
2018-10-06T07:30:48.099Z,75.81
2018-10-06T07:31:55.623Z,75.94
2018-10-06T07:33:02.169Z,76.06
2018-10-06T07:34:08.942Z,76.23
2018-10-06T07:35:15.682Z,76.37
2018-10-06T07:36:22.487Z,76.55
2018-10-06T07:37:29.149Z,76.70
2018-10-06T07:38:36.386Z,76.92
2018-10-06T07:39:43.074Z,77.12
2018-10-06T07:40:50.343Z,77.29
2018-10-06T07:41:56.906Z,77.42
2018-10-06T07:43:04.310Z,77.58
2018-10-06T07:44:11.041Z,77.73
2018-10-06T07:45:18.125Z,77.84
2018-10-06T07:46:25.501Z,77.97
2018-10-06T07:47:32.232Z,78.11
2018-10-06T07:48:39.010Z,78.23
2018-10-06T07:49:45.710Z,78.30
2018-10-06T07:50:52.470Z,78.43
2018-10-06T07:51:59.050Z,78.55
2018-10-06T07:53:06.429Z,78.68
2018-10-06T07:54:13.071Z,78.81
2018-10-06T07:55:20.338Z,78.93
2018-10-06T07:56:27.006Z,79.03
2018-10-06T07:57:34.312Z,79.13
2018-10-06T07:58:40.953Z,79.23
2018-10-06T07:59:48.230Z,79.34
2018-10-06T08:00:55.090Z,79.48
2018-10-06T08:02:01.762Z,79.62
2018-10-06T08:03:08.531Z,79.75
2018-10-06T08:04:15.413Z,79.94
2018-10-06T08:05:22.362Z,80.06
2018-10-06T08:06:29.134Z,80.19
2018-10-06T08:07:35.923Z,80.35
2018-10-06T08:08:42.766Z,80.48
2018-10-06T08:09:49.628Z,80.67
2018-10-06T08:10:56.378Z,80.83
2018-10-06T08:12:03.061Z,81.02
2018-10-06T08:13:10.058Z,81.18
2018-10-06T08:14:16.734Z,81.39
2018-10-06T08:15:23.558Z,81.55
2018-10-06T08:16:30.287Z,81.68
2018-10-06T08:17:37.195Z,81.83
2018-10-06T08:18:43.866Z,82.01
2018-10-06T08:19:50.627Z,82.20
2018-10-06T08:20:57.595Z,82.36
2018-10-06T08:22:04.456Z,82.54
2018-10-06T08:23:11.347Z,82.74
2018-10-06T08:24:18.027Z,82.92
2018-10-06T08:25:24.740Z,83.11
2018-10-06T08:26:31.423Z,83.29
2018-10-06T08:27:38.311Z,83.46
2018-10-06T08:28:45.082Z,83.63
2018-10-06T08:29:52.039Z,83.76
2018-10-06T08:30:58.811Z,83.93
2018-10-06T08:32:05.684Z,84.12
2018-10-06T08:33:12.444Z,84.25
2018-10-06T08:34:19.274Z,84.42
2018-10-06T08:35:25.994Z,84.57
2018-10-06T08:36:32.733Z,84.68
2018-10-06T08:37:39.574Z,84.83
2018-10-06T08:38:46.210Z,84.97
2018-10-06T08:39:54.141Z,85.10
2018-10-06T08:41:00.300Z,85.28
2018-10-06T08:42:07.970Z,85.40
2018-10-06T08:43:14.746Z,85.57
2018-10-06T08:44:21.701Z,85.69
2018-10-06T08:45:28.317Z,85.86
2018-10-06T08:46:35.250Z,85.94
2018-10-06T08:47:41.898Z,86.08
2018-10-06T08:48:49.024Z,86.21
2018-10-06T08:49:56.262Z,86.34
2018-10-06T08:51:03.415Z,86.45
2018-10-06T08:52:10.698Z,86.58
2018-10-06T08:53:16.859Z,86.70
2018-10-06T08:54:24.231Z,86.79
2018-10-06T08:55:30.881Z,86.91
2018-10-06T08:56:38.182Z,86.96
2018-10-06T08:57:44.954Z,87.08
2018-10-06T08:58:52.197Z,87.13
2018-10-06T08:59:58.902Z,87.25
2018-10-06T09:01:06.139Z,87.38
2018-10-06T09:02:12.913Z,87.48
2018-10-06T09:03:20.201Z,87.59
2018-10-06T09:04:27.096Z,87.69
2018-10-06T09:05:33.813Z,87.79
2018-10-06T09:06:40.791Z,87.90
2018-10-06T09:07:47.571Z,88.02
2018-10-06T09:08:54.534Z,88.14
2018-10-06T09:10:01.395Z,88.24
2018-10-06T09:11:08.047Z,88.35
2018-10-06T09:12:14.723Z,88.50
2018-10-06T09:13:21.803Z,88.61
2018-10-06T09:14:28.643Z,88.74
2018-10-06T09:15:35.414Z,88.84
2018-10-06T09:16:42.074Z,88.95
2018-10-06T09:17:48.676Z,89.10
2018-10-06T09:18:55.842Z,89.20
2018-10-06T09:20:02.577Z,89.31
2018-10-06T09:21:09.337Z,89.44
2018-10-06T09:22:16.418Z,89.53
2018-10-06T09:23:23.707Z,89.63
2018-10-06T09:24:30.356Z,89.75
2018-10-06T09:25:37.618Z,89.83
2018-10-06T09:26:44.191Z,89.94
2018-10-06T09:27:51.462Z,90.04
2018-10-06T09:28:58.135Z,90.17
2018-10-06T09:30:05.419Z,90.27
2018-10-06T09:31:12.158Z,90.38
2018-10-06T09:32:19.306Z,90.51
2018-10-06T09:33:26.546Z,90.62
2018-10-06T09:34:33.114Z,90.70
2018-10-06T09:35:40.475Z,90.79
2018-10-06T09:36:47.210Z,90.91
2018-10-06T09:37:53.998Z,91.03
2018-10-06T09:39:00.667Z,91.16
2018-10-06T09:40:07.866Z,91.27
2018-10-06T09:41:14.580Z,91.38
2018-10-06T09:42:21.980Z,91.48
2018-10-06T09:43:28.429Z,91.60
2018-10-06T09:44:35.730Z,91.70
2018-10-06T09:45:42.321Z,91.79
2018-10-06T09:46:49.436Z,91.89
2018-10-06T09:47:56.515Z,91.97
2018-10-06T09:49:03.814Z,92.03
2018-10-06T09:50:10.470Z,92.11
2018-10-06T09:51:17.171Z,92.25
2018-10-06T09:52:24.282Z,92.34
2018-10-06T09:53:31.404Z,92.44
2018-10-06T09:54:38.652Z,92.51
2018-10-06T09:55:45.213Z,92.64
2018-10-06T09:56:52.686Z,92.76
2018-10-06T09:57:59.468Z,92.85
2018-10-06T09:59:06.345Z,92.96
2018-10-06T10:00:12.962Z,93.08
2018-10-06T10:01:20.295Z,93.20
2018-10-06T10:02:26.926Z,93.27
2018-10-06T10:03:33.691Z,93.33
2018-10-06T10:04:40.773Z,93.44
2018-10-06T10:05:47.461Z,93.51
2018-10-06T10:06:54.868Z,93.55
2018-10-06T10:08:01.613Z,93.64
2018-10-06T10:09:08.674Z,93.72
2018-10-06T10:10:15.067Z,93.77
2018-10-06T10:11:22.069Z,93.84
2018-10-06T10:12:28.872Z,93.94
2018-10-06T10:13:35.697Z,94.02
2018-10-06T10:14:42.528Z,94.11
2018-10-06T10:15:49.232Z,94.17
2018-10-06T10:16:55.859Z,94.22
2018-10-06T10:18:02.648Z,94.23
2018-10-06T10:19:09.344Z,94.33
2018-10-06T10:20:16.810Z,94.36
2018-10-06T10:21:23.573Z,94.43
2018-10-06T10:22:30.542Z,94.49
2018-10-06T10:23:37.222Z,94.55
2018-10-06T10:24:43.975Z,94.57
2018-10-06T10:25:50.733Z,94.61
2018-10-06T10:26:57.386Z,94.63
2018-10-06T10:28:04.667Z,94.65
2018-10-06T10:29:11.449Z,94.68
2018-10-06T10:30:18.194Z,94.66
2018-10-06T10:31:24.918Z,94.72
2018-10-06T10:32:31.723Z,94.75
2018-10-06T10:33:38.999Z,94.76
2018-10-06T10:34:46.202Z,94.77
2018-10-06T10:35:53.054Z,94.75
2018-10-06T10:36:59.818Z,94.77
2018-10-06T10:38:06.694Z,94.77
2018-10-06T10:39:13.422Z,94.79
2018-10-06T10:40:20.163Z,94.81
2018-10-06T10:41:27.070Z,94.80
2018-10-06T10:42:33.670Z,94.84
2018-10-06T10:43:40.807Z,94.83
2018-10-06T10:44:47.699Z,94.86
2018-10-06T10:45:54.436Z,94.90
2018-10-06T10:47:01.101Z,94.88
2018-10-06T10:48:08.434Z,94.89
2018-10-06T10:49:15.054Z,94.91
2018-10-06T10:50:22.347Z,94.89
2018-10-06T10:51:29.223Z,94.89
2018-10-06T10:52:36.046Z,94.91
2018-10-06T10:53:42.615Z,94.94
2018-10-06T10:54:50.014Z,94.96
2018-10-06T10:55:56.729Z,94.94
2018-10-06T10:57:03.939Z,94.94
2018-10-06T10:58:10.901Z,94.89
2018-10-06T10:59:17.542Z,94.87
2018-10-06T11:00:25.093Z,94.87
2018-10-06T11:01:31.717Z,94.91
2018-10-06T11:02:38.429Z,94.97
2018-10-06T11:03:45.107Z,95.00
2018-10-06T11:04:52.392Z,94.97
2018-10-06T11:05:59.128Z,94.89
2018-10-06T11:07:06.267Z,94.78
2018-10-06T11:08:12.931Z,94.75
2018-10-06T11:09:20.311Z,94.70
2018-10-06T11:10:27.092Z,94.68
2018-10-06T11:11:33.739Z,94.68
2018-10-06T11:12:40.533Z,94.62
2018-10-06T11:13:47.162Z,94.56
2018-10-06T11:14:54.531Z,94.48
2018-10-06T11:16:01.292Z,94.34
2018-10-06T11:17:08.630Z,94.26
2018-10-06T11:18:15.171Z,94.17
2018-10-06T11:19:22.344Z,94.06
2018-10-06T11:20:29.295Z,93.91
2018-10-06T11:21:36.168Z,93.77
2018-10-06T11:22:42.905Z,93.69
2018-10-06T11:23:49.681Z,93.55
2018-10-06T11:24:56.509Z,93.49
2018-10-06T11:26:03.115Z,93.35
2018-10-06T11:27:10.370Z,93.21
2018-10-06T11:28:17.055Z,93.15
2018-10-06T11:29:23.724Z,93.09
2018-10-06T11:30:30.293Z,92.90
2018-10-06T11:31:37.545Z,92.80
2018-10-06T11:32:44.202Z,92.72
2018-10-06T11:33:51.067Z,92.62
2018-10-06T11:34:57.741Z,92.46
2018-10-06T11:36:04.514Z,92.28
2018-10-06T11:37:11.179Z,92.19
2018-10-06T11:38:18.389Z,92.16
2018-10-06T11:39:25.530Z,92.05
2018-10-06T11:40:32.181Z,91.89
2018-10-06T11:41:39.451Z,91.83
2018-10-06T11:42:46.202Z,91.66
2018-10-06T11:43:52.990Z,91.51
2018-10-06T11:44:59.696Z,91.39
2018-10-06T11:46:06.531Z,91.27
2018-10-06T11:47:13.505Z,91.21
2018-10-06T11:48:20.285Z,91.06
2018-10-06T11:49:26.905Z,90.92
2018-10-06T11:50:34.102Z,90.78
2018-10-06T11:51:40.746Z,90.76
2018-10-06T11:52:47.398Z,90.63
2018-10-06T11:53:54.550Z,90.31
2018-10-06T11:55:01.753Z,90.10
2018-10-06T11:56:08.714Z,89.83
2018-10-06T11:57:15.402Z,89.54
2018-10-06T11:58:22.267Z,89.38
2018-10-06T11:59:28.895Z,89.31
2018-10-06T12:00:36.227Z,89.02
2018-10-06T12:01:42.849Z,88.86
2018-10-06T12:02:50.145Z,88.59
2018-10-06T12:03:56.950Z,88.46
2018-10-06T12:05:10.319Z,88.42
2018-10-06T12:06:10.278Z,88.26
2018-10-06T12:07:16.957Z,88.08
2018-10-06T12:08:23.809Z,87.95
2018-10-06T12:09:30.834Z,88.00
2018-10-06T12:10:37.630Z,87.75
2018-10-06T12:11:44.247Z,87.77
2018-10-06T12:12:51.551Z,87.62
2018-10-06T12:13:58.311Z,87.19
2018-10-06T12:15:05.374Z,86.99
2018-10-06T12:16:12.112Z,86.85
2018-10-06T12:17:19.406Z,86.86
2018-10-06T12:18:25.970Z,86.69
2018-10-06T12:19:33.159Z,86.47
2018-10-06T12:20:40.065Z,86.43
2018-10-06T12:21:46.711Z,86.33
2018-10-06T12:22:53.438Z,86.33
2018-10-06T12:24:00.313Z,86.33
2018-10-06T12:25:07.104Z,86.10
2018-10-06T12:26:13.813Z,85.92
2018-10-06T12:27:20.723Z,85.77
2018-10-06T12:28:27.368Z,85.43
2018-10-06T12:29:34.558Z,85.16
2018-10-06T12:30:41.077Z,84.98
2018-10-06T12:31:48.295Z,84.73
2018-10-06T12:32:55.563Z,84.68
2018-10-06T12:34:02.117Z,84.57
2018-10-06T12:35:09.342Z,84.27
2018-10-06T12:36:15.881Z,84.15
2018-10-06T12:37:23.122Z,83.89
2018-10-06T12:38:29.785Z,83.75
2018-10-06T12:39:36.973Z,83.69
2018-10-06T12:40:43.570Z,83.52
2018-10-06T12:41:50.923Z,83.33
2018-10-06T12:42:57.565Z,83.21
2018-10-06T12:44:04.851Z,83.15
2018-10-06T12:45:11.518Z,82.97
2018-10-06T12:46:18.705Z,82.78
2018-10-06T12:47:25.554Z,82.57
2018-10-06T12:48:32.324Z,82.49
2018-10-06T12:49:39.598Z,82.41
2018-10-06T12:50:46.217Z,82.25
2018-10-06T12:51:53.438Z,82.14
2018-10-06T12:53:05.013Z,81.93
2018-10-06T12:54:07.361Z,81.80
2018-10-06T12:55:14.133Z,81.54
2018-10-06T12:56:20.926Z,81.28
2018-10-06T12:57:27.556Z,81.04
2018-10-06T12:58:34.837Z,81.06
2018-10-06T12:59:41.431Z,80.82
2018-10-06T13:00:48.533Z,80.61
2018-10-06T13:01:55.757Z,80.43
2018-10-06T13:03:02.837Z,80.50
2018-10-06T13:04:10.086Z,80.38
2018-10-06T13:05:16.916Z,80.07
2018-10-06T13:06:23.777Z,79.77
2018-10-06T13:07:30.605Z,79.55
2018-10-06T13:08:38.032Z,79.24
2018-10-06T13:09:44.310Z,79.22
2018-10-06T13:10:51.752Z,78.90
2018-10-06T13:11:58.447Z,78.63
2018-10-06T13:13:05.876Z,78.52
2018-10-06T13:14:12.530Z,78.37
2018-10-06T13:15:19.760Z,78.14
2018-10-06T13:16:26.478Z,78.08
2018-10-06T13:17:33.326Z,77.94
2018-10-06T13:18:40.047Z,77.68
2018-10-06T13:19:46.663Z,77.46
2018-10-06T13:20:53.938Z,77.29
2018-10-06T13:22:01.771Z,77.30
2018-10-06T13:23:07.659Z,76.95
2018-10-06T13:24:14.450Z,76.89
2018-10-06T13:25:21.295Z,76.85
2018-10-06T13:26:27.966Z,76.82
2018-10-06T13:27:34.925Z,76.58
2018-10-06T13:28:41.694Z,76.18
2018-10-06T13:29:48.902Z,75.88
2018-10-06T13:30:55.658Z,75.66
2018-10-06T13:32:02.410Z,75.52
2018-10-06T13:33:09.677Z,75.34
2018-10-06T13:34:16.450Z,75.25
2018-10-06T13:35:23.212Z,75.10
2018-10-06T13:36:30.083Z,74.78
2018-10-06T13:37:36.855Z,74.59
2018-10-06T13:38:43.505Z,74.44
2018-10-06T13:39:50.888Z,74.16
2018-10-06T13:40:57.837Z,74.02
2018-10-06T13:42:04.542Z,73.89
2018-10-06T13:43:11.213Z,73.89
2018-10-06T13:44:18.512Z,73.74
2018-10-06T13:45:25.321Z,73.51
2018-10-06T13:46:32.001Z,73.43
2018-10-06T13:47:38.878Z,73.15
2018-10-06T13:48:45.601Z,72.99
2018-10-06T13:49:52.344Z,72.88
2018-10-06T13:50:59.382Z,72.80
2018-10-06T13:52:06.198Z,72.62
2018-10-06T13:53:13.083Z,72.50
2018-10-06T13:54:20.354Z,72.15
2018-10-06T13:55:27.018Z,71.92
2018-10-06T13:56:33.708Z,71.62
2018-10-06T13:57:40.371Z,71.52
2018-10-06T13:58:47.761Z,71.40
2018-10-06T13:59:54.549Z,71.20
2018-10-06T14:01:01.794Z,70.99
2018-10-06T14:02:08.982Z,70.95
2018-10-06T14:03:15.210Z,70.66
2018-10-06T14:04:22.187Z,70.66
2018-10-06T14:05:28.978Z,70.48
2018-10-06T14:06:36.258Z,70.26
2018-10-06T14:07:43.228Z,70.28
2018-10-06T14:08:51.292Z,70.28
2018-10-06T14:09:57.048Z,70.26
2018-10-06T14:11:03.790Z,70.13
2018-10-06T14:12:10.770Z,69.95
2018-10-06T14:13:17.479Z,70.05
2018-10-06T14:14:24.601Z,70.04
2018-10-06T14:15:31.761Z,70.05
2018-10-06T14:16:39.154Z,69.90
2018-10-06T14:17:45.822Z,69.82
2018-10-06T14:18:52.569Z,69.80
2018-10-06T14:19:59.246Z,69.69
2018-10-06T14:21:05.911Z,69.53